»·PEaware :: SKY206 S59-KSZT

SKY206 :: S59-KSZT

FLIGHT INFORMATION

Flight Status: Arrived
Operator:
Sky High Charters
More flights by this operator :: More flights under this callsign
Pilot: Nick L. (7253)
Aircraft: BEECH AIRCRAFT SUPER KING AIR 350
(B350)
More flights by this aircraft type
Origin: S59 Libby
United States
Destination: KSZT Sandpoint
United States
More flights between these airports :: More routes between these airports
Route: EYESE1 EYESE V448 CLASS
File this flight plan on PilotEdge
Remarks: Scenario 6
Altitude:
(Current/Filed)
12,000ft
Speed:
(Current/Filed)
250kts
Departed: 04-Mar-21 12:28 PM
Arrived: 04-Mar-21 12:57 PM
Distance/Time
Traveled:
43nm/0:29
Distance/Time
To Go:
Arrived

Flight Plot

Page will automatically refresh every two minutes.

Flight plan parsing failed; only flown route is shown


Map Options




Map Legend


Flown Route
Filed Route
Departure Airport
Arrival Airport
Navaid (VOR, NDB)
Fix

Horizontal Profiles

Position Reports

Time Latitude Longitude Heading Altitude Ground
Speed
04-Mar-21 12:05 48.284302 -115.488830 254 2606ft 0kts
04-Mar-21 12:06 48.284302 -115.488830 254 2606ft 0kts
04-Mar-21 12:07 48.284302 -115.488830 254 2606ft 0kts
04-Mar-21 12:08 48.284302 -115.488830 254 2606ft 0kts
04-Mar-21 12:09 48.284302 -115.488830 254 2606ft 0kts
04-Mar-21 12:10 48.284302 -115.488830 254 2606ft 0kts
04-Mar-21 12:11 48.284302 -115.488830 254 2606ft 0kts
04-Mar-21 12:12 48.284302 -115.488830 254 2606ft 0kts
04-Mar-21 12:13 48.284302 -115.488830 254 2606ft 0kts
04-Mar-21 12:14 48.284302 -115.488830 254 2606ft 0kts
04-Mar-21 12:15 48.284302 -115.488830 254 2606ft 0kts
04-Mar-21 12:16 48.284302 -115.488830 254 2606ft 0kts
04-Mar-21 12:17 48.284302 -115.488830 254 2606ft 0kts
04-Mar-21 12:18 48.284302 -115.488830 254 2606ft 0kts
04-Mar-21 12:19 48.284302 -115.488830 254 2606ft 0kts
04-Mar-21 12:20 48.284302 -115.488830 254 2606ft 0kts
04-Mar-21 12:21 48.284302 -115.488830 254 2606ft 0kts
04-Mar-21 12:22 48.284302 -115.488830 254 2606ft 0kts
04-Mar-21 12:23 48.284302 -115.488830 254 2606ft 0kts
04-Mar-21 12:24 48.285175 -115.489494 343 2604ft 8kts
04-Mar-21 12:25 48.288875 -115.490954 345 2595ft 18kts
04-Mar-21 12:26 48.290299 -115.492809 160 2591ft 0kts
04-Mar-21 12:27 48.281808 -115.489481 164 2649ft 121kts
04-Mar-21 12:28 48.244359 -115.475044 162 4414ft 155kts
04-Mar-21 12:29 48.201689 -115.457912 165 6211ft 162kts
04-Mar-21 12:30 48.159502 -115.441312 165 8185ft 171kts
04-Mar-21 12:31 48.113334 -115.423179 165 10410ft 169kts
04-Mar-21 12:32 48.066737 -115.404920 165 11906ft 210kts
04-Mar-21 12:33 48.008004 -115.395745 211 11878ft 243kts
04-Mar-21 12:34 47.980794 -115.491557 255 11868ft 269kts
04-Mar-21 12:35 47.960482 -115.601622 255 11864ft 279kts
04-Mar-21 12:37 47.919905 -115.819602 254 11861ft 270kts
04-Mar-21 12:38 47.899749 -115.926953 254 11861ft 268kts
04-Mar-21 12:39 47.879547 -116.034040 254 11859ft 268kts
04-Mar-21 12:40 47.860394 -116.141134 269 11829ft 268kts
04-Mar-21 12:41 47.885283 -116.245067 292 11822ft 267kts
04-Mar-21 12:42 47.913163 -116.347744 292 11819ft 267kts
04-Mar-21 12:43 47.940699 -116.449565 292 11619ft 252kts
04-Mar-21 12:44 47.996466 -116.476459 14 10787ft 231kts
04-Mar-21 12:46 48.058025 -116.450986 16 9756ft 227kts
04-Mar-21 12:47 48.118529 -116.425336 16 8851ft 225kts
04-Mar-21 12:48 48.178395 -116.399891 16 8049ft 222kts
04-Mar-21 12:49 48.237399 -116.374753 16 7140ft 221kts
04-Mar-21 12:50 48.295784 -116.349821 16 6635ft 220kts
04-Mar-21 12:51 48.354822 -116.324545 16 6611ft 208kts
04-Mar-21 12:52 48.397815 -116.363626 297 5895ft 216kts
04-Mar-21 12:53 48.415498 -116.441413 242 4997ft 184kts
04-Mar-21 12:54 48.378710 -116.485291 212 4294ft 156kts
04-Mar-21 12:55 48.343431 -116.518684 212 3244ft 144kts
04-Mar-21 12:56 48.309939 -116.550374 211 2298ft 130kts
04-Mar-21 12:57 48.296900 -116.563773 19 2136ft 4kts
04-Mar-21 12:58 48.297231 -116.564160 214 2136ft 0kts
04-Mar-21 12:59 48.297231 -116.564160 214 2136ft 0kts
04-Mar-21 13:00 48.297231 -116.564160 214 2136ft 0kts
04-Mar-21 13:01 48.297231 -116.564160 214 2136ft 0kts
04-Mar-21 13:02 48.297231 -116.564160 214 2136ft 0kts

Navigation Log

Ident Type
Flight plan parsing failed, navigation log unavailable